AEA1502 OERK-OEJN
Flight info
| Callsign | AEA1502 |
|---|---|
| Flight time | N/A |
| Altitude | 34000 |
| Route | UMASU1D UMASU M309 VEMEM VEMEM1A |
| Aircraft | E195/M-SDE3GILORVW/S |
Departure
| Time | 2026-04-28 22:04 |
|---|---|
| Airport | King Khalid International Airport (OERK) |
Arrival
| Time | N/A |
|---|---|
| Airport | King Abdulaziz International Airport (OEJN) |
| Time | Latitude | Longitude | Altitude | Speed | Heading |
|---|---|---|---|---|---|
| 2026-04-28 21:35 | 24.95889 | 46.70541 | 2036 ft | 0 kts | 257° |
| 2026-04-28 21:57 | 24.95892 | 46.70556 | 2035 ft | 4 kts | 257° |
| 2026-04-28 21:57 | 24.95897 | 46.70584 | 2036 ft | 4 kts | 257° |
| 2026-04-28 21:57 | 24.95903 | 46.70611 | 2034 ft | 4 kts | 257° |
| 2026-04-28 21:58 | 24.95911 | 46.70638 | 2035 ft | 4 kts | 221° |
| 2026-04-28 21:58 | 24.95934 | 46.70646 | 2033 ft | 4 kts | 165° |
| 2026-04-28 21:58 | 24.95942 | 46.70644 | 2033 ft | 0 kts | 157° |
| 2026-04-28 22:00 | 24.95913 | 46.70660 | 2030 ft | 6 kts | 150° |
| 2026-04-28 22:00 | 24.95866 | 46.70689 | 2033 ft | 10 kts | 150° |
| 2026-04-28 22:00 | 24.95793 | 46.70735 | 2032 ft | 14 kts | 150° |
| 2026-04-28 22:01 | 24.95695 | 46.70795 | 2030 ft | 18 kts | 150° |
| 2026-04-28 22:01 | 24.95582 | 46.70872 | 2030 ft | 21 kts | 148° |
| 2026-04-28 22:01 | 24.95450 | 46.70956 | 2038 ft | 21 kts | 156° |
| 2026-04-28 22:01 | 24.95332 | 46.71016 | 2038 ft | 18 kts | 177° |
| 2026-04-28 22:02 | 24.95260 | 46.70938 | 2035 ft | 15 kts | 245° |
| 2026-04-28 22:02 | 24.95068 | 46.70576 | 2033 ft | 31 kts | 239° |
| 2026-04-28 22:02 | 24.94589 | 46.69660 | 2029 ft | 46 kts | 236° |
| 2026-04-28 22:02 | 24.94433 | 46.69371 | 2028 ft | 1 kts | 241° |
| 2026-04-28 22:03 | 24.94387 | 46.69264 | 2027 ft | 12 kts | 270° |
| 2026-04-28 22:03 | 24.94410 | 46.69190 | 2033 ft | 8 kts | 316° |
| 2026-04-28 22:03 | 24.94464 | 46.69156 | 2025 ft | 23 kts | 332° |
| 2026-04-28 22:03 | 24.94791 | 46.68949 | 2029 ft | 84 kts | 329° |
| 2026-04-28 22:04 | 24.95470 | 46.68521 | 2032 ft | 139 kts | 330° |
| 2026-04-28 22:04 | 24.96436 | 46.67899 | 2128 ft | 174 kts | 330° |
| 2026-04-28 22:04 | 24.97480 | 46.67251 | 2819 ft | 177 kts | 330° |
| 2026-04-28 22:04 | 24.98533 | 46.66468 | 3331 ft | 192 kts | 322° |
| 2026-04-28 22:05 | 24.99533 | 46.65396 | 3835 ft | 207 kts | 315° |
| 2026-04-28 22:05 | 25.00470 | 46.64123 | 4378 ft | 222 kts | 301° |
| 2026-04-28 22:05 | 25.00993 | 46.62455 | 4884 ft | 242 kts | 276° |
| 2026-04-28 22:05 | 25.00816 | 46.60524 | 5298 ft | 268 kts | 249° |
| 2026-04-28 22:06 | 24.99917 | 46.58656 | 5992 ft | 281 kts | 237° |
| 2026-04-28 22:06 | 24.98877 | 46.56845 | 6816 ft | 287 kts | 237° |
| 2026-04-28 22:06 | 24.96590 | 46.52939 | 7163 ft | 297 kts | 236° |
| 2026-04-28 22:06 | 24.92386 | 46.45250 | 7547 ft | 272 kts | 245° |
| 2026-04-28 22:07 | 24.90665 | 46.37003 | 10171 ft | 279 kts | 254° |
| 2026-04-28 22:07 | 24.88502 | 46.28127 | 13154 ft | 308 kts | 253° |
| 2026-04-28 22:07 | 24.86202 | 46.18906 | 16514 ft | 317 kts | 251° |
| 2026-04-28 22:07 | 24.79732 | 46.12342 | 19309 ft | 328 kts | 217° |
| 2026-04-28 22:08 | 24.72242 | 46.06483 | 21933 ft | 332 kts | 218° |
| 2026-04-28 22:08 | 24.65805 | 45.99496 | 23993 ft | 339 kts | 242° |
| 2026-04-28 22:08 | 24.61045 | 45.90339 | 25579 ft | 348 kts | 239° |
| 2026-04-28 22:08 | 24.55963 | 45.81131 | 27090 ft | 356 kts | 239° |
| 2026-04-28 22:09 | 24.50763 | 45.71706 | 28457 ft | 365 kts | 240° |
| 2026-04-28 22:09 | 24.45483 | 45.62044 | 29681 ft | 373 kts | 241° |
| 2026-04-28 22:09 | 24.39898 | 45.52330 | 30634 ft | 379 kts | 240° |
| 2026-04-28 22:09 | 24.34174 | 45.42504 | 31486 ft | 385 kts | 240° |
| 2026-04-28 22:10 | 24.28371 | 45.32542 | 32303 ft | 389 kts | 240° |
| 2026-04-28 22:10 | 24.22570 | 45.22615 | 33332 ft | 385 kts | 240° |
| 2026-04-28 22:10 | 24.16824 | 45.12785 | 34050 ft | 379 kts | 243° |
| 2026-04-28 22:10 | 24.11852 | 45.02273 | 33957 ft | 399 kts | 246° |
| 2026-04-28 22:11 | 24.06929 | 44.91361 | 33956 ft | 407 kts | 246° |
| 2026-04-28 22:11 | 23.96835 | 44.69080 | 33957 ft | 411 kts | 246° |
| 2026-04-28 22:12 | 23.88010 | 44.46149 | 33952 ft | 408 kts | 250° |
| 2026-04-28 22:12 | 23.79811 | 44.22969 | 33935 ft | 408 kts | 250° |
| 2026-04-28 22:13 | 23.71639 | 43.99975 | 33938 ft | 409 kts | 250° |
| 2026-04-28 22:13 | 23.63357 | 43.76792 | 33960 ft | 411 kts | 250° |
| 2026-04-28 22:14 | 23.55022 | 43.53587 | 33968 ft | 411 kts | 250° |
| 2026-04-28 22:14 | 23.46629 | 43.30336 | 33993 ft | 412 kts | 250° |
| 2026-04-28 22:15 | 23.38212 | 43.07132 | 34007 ft | 411 kts | 250° |
| 2026-04-28 22:15 | 23.29842 | 42.84165 | 34016 ft | 411 kts | 250° |
| 2026-04-28 22:16 | 23.21371 | 42.61045 | 34022 ft | 412 kts | 250° |
| 2026-04-28 22:16 | 23.12845 | 42.37891 | 34012 ft | 412 kts | 250° |
| 2026-04-28 22:17 | 23.04530 | 42.14712 | 34023 ft | 410 kts | 250° |
| 2026-04-28 22:17 | 22.96206 | 41.91520 | 34019 ft | 412 kts | 250° |
| 2026-04-28 22:18 | 22.87842 | 41.68341 | 34027 ft | 412 kts | 250° |
| 2026-04-28 22:18 | 22.83332 | 41.55891 | 34044 ft | 412 kts | 250° |
| 2026-04-28 22:19 | 22.81234 | 41.50124 | 34018 ft | 410 kts | 250° |
| 2026-04-28 22:19 | 22.79143 | 41.44385 | 34028 ft | 411 kts | 250° |
| 2026-04-28 22:20 | 22.77045 | 41.38620 | 34046 ft | 413 kts | 250° |
| 2026-04-28 22:20 | 22.74931 | 41.32819 | 34026 ft | 413 kts | 250° |
| 2026-04-28 22:21 | 22.72831 | 41.27076 | 34033 ft | 413 kts | 250° |
| 2026-04-28 22:21 | 22.70714 | 41.21286 | 34038 ft | 413 kts | 250° |
| 2026-04-28 22:22 | 22.68602 | 41.15504 | 34035 ft | 413 kts | 250° |
| 2026-04-28 22:22 | 22.66481 | 41.09719 | 34036 ft | 412 kts | 249° |
| 2026-04-28 22:23 | 22.64362 | 41.03964 | 34025 ft | 413 kts | 249° |
| 2026-04-28 22:23 | 22.62248 | 40.98202 | 34031 ft | 414 kts | 249° |
| 2026-04-28 22:24 | 22.60116 | 40.92407 | 34038 ft | 414 kts | 249° |
| 2026-04-28 22:24 | 22.57981 | 40.86619 | 34030 ft | 413 kts | 249° |
| 2026-04-28 22:25 | 22.55850 | 40.80853 | 34027 ft | 408 kts | 249° |
| 2026-04-28 22:25 | 22.54811 | 40.78057 | 33838 ft | 394 kts | 249° |
| 2026-04-28 22:25 | 22.53793 | 40.75332 | 33334 ft | 387 kts | 249° |
| 2026-04-28 22:25 | 22.52789 | 40.72647 | 32703 ft | 383 kts | 249° |
| 2026-04-28 22:26 | 22.51802 | 40.70003 | 31972 ft | 383 kts | 250° |
| 2026-04-28 22:26 | 22.50807 | 40.67318 | 31267 ft | 382 kts | 250° |
| 2026-04-28 22:26 | 22.49842 | 40.64718 | 31279 ft | 363 kts | 250° |
| 2026-04-28 22:26 | 22.48908 | 40.62226 | 30909 ft | 356 kts | 250° |
| 2026-04-28 22:27 | 22.47978 | 40.59755 | 30463 ft | 351 kts | 250° |
| 2026-04-28 22:27 | 22.47065 | 40.57326 | 30025 ft | 346 kts | 250° |
| 2026-04-28 22:27 | 22.46169 | 40.54928 | 29597 ft | 342 kts | 250° |
| 2026-04-28 22:27 | 22.45275 | 40.52522 | 29234 ft | 352 kts | 250° |
| 2026-04-28 22:28 | 22.44347 | 40.49994 | 28890 ft | 371 kts | 250° |
| 2026-04-28 22:28 | 22.43384 | 40.47353 | 28458 ft | 382 kts | 250° |
| 2026-04-28 22:28 | 22.42416 | 40.44701 | 27973 ft | 383 kts | 250° |
| 2026-04-28 22:28 | 22.41435 | 40.42025 | 27428 ft | 382 kts | 249° |
| 2026-04-28 22:29 | 22.40454 | 40.39358 | 26880 ft | 381 kts | 249° |
| 2026-04-28 22:29 | 22.39470 | 40.36687 | 26343 ft | 382 kts | 249° |
| 2026-04-28 22:29 | 22.38488 | 40.34022 | 25808 ft | 382 kts | 249° |
| 2026-04-28 22:29 | 22.37503 | 40.31349 | 25282 ft | 384 kts | 249° |
| 2026-04-28 22:30 | 22.36512 | 40.28657 | 24772 ft | 386 kts | 248° |
| 2026-04-28 22:30 | 22.35519 | 40.25952 | 24272 ft | 388 kts | 248° |
| 2026-04-28 22:30 | 22.34535 | 40.23271 | 23785 ft | 388 kts | 248° |
| 2026-04-28 22:30 | 22.33537 | 40.20554 | 23210 ft | 390 kts | 248° |
| 2026-04-28 22:31 | 22.32530 | 40.17816 | 22622 ft | 394 kts | 248° |
| 2026-04-28 22:31 | 22.31511 | 40.15058 | 22093 ft | 397 kts | 248° |
| 2026-04-28 22:31 | 22.30481 | 40.12281 | 21565 ft | 400 kts | 248° |
| 2026-04-28 22:31 | 22.29457 | 40.09523 | 21013 ft | 390 kts | 248° |
| 2026-04-28 22:32 | 22.28446 | 40.06836 | 20489 ft | 381 kts | 247° |
| 2026-04-28 22:32 | 22.27441 | 40.04222 | 19991 ft | 373 kts | 247° |
| 2026-04-28 22:32 | 22.26364 | 40.01702 | 19492 ft | 366 kts | 239° |
| 2026-04-28 22:32 | 22.24975 | 39.99434 | 19034 ft | 357 kts | 236° |
| 2026-04-28 22:33 | 22.23549 | 39.97312 | 18613 ft | 351 kts | 233° |
| 2026-04-28 22:33 | 22.22091 | 39.95224 | 18161 ft | 345 kts | 234° |
| 2026-04-28 22:33 | 22.20685 | 39.93150 | 17672 ft | 340 kts | 235° |
| 2026-04-28 22:33 | 22.19337 | 39.91080 | 17216 ft | 334 kts | 236° |
| 2026-04-28 22:34 | 22.18042 | 39.89018 | 16775 ft | 329 kts | 236° |
| 2026-04-28 22:34 | 22.16786 | 39.86975 | 16350 ft | 324 kts | 237° |
| 2026-04-28 22:34 | 22.15553 | 39.84952 | 15915 ft | 320 kts | 237° |
| 2026-04-28 22:34 | 22.14334 | 39.82949 | 15516 ft | 318 kts | 237° |
| 2026-04-28 22:35 | 22.13112 | 39.80945 | 15128 ft | 322 kts | 236° |
| 2026-04-28 22:35 | 22.11880 | 39.78938 | 15158 ft | 317 kts | 236° |
| 2026-04-28 22:35 | 22.10672 | 39.76967 | 15760 ft | 322 kts | 237° |
| 2026-04-28 22:35 | 22.09437 | 39.74922 | 15399 ft | 331 kts | 237° |
| 2026-04-28 22:36 | 22.08178 | 39.72824 | 15052 ft | 330 kts | 237° |
| 2026-04-28 22:36 | 22.06940 | 39.70768 | 14980 ft | 325 kts | 237° |
| 2026-04-28 22:36 | 22.05703 | 39.68728 | 14968 ft | 326 kts | 237° |
| 2026-04-28 22:36 | 22.04453 | 39.66679 | 14955 ft | 328 kts | 236° |
| 2026-04-28 22:37 | 22.03193 | 39.64628 | 14948 ft | 329 kts | 236° |
| 2026-04-28 22:37 | 22.01923 | 39.62573 | 14951 ft | 329 kts | 236° |
| 2026-04-28 22:37 | 22.00659 | 39.60531 | 14951 ft | 323 kts | 236° |
| 2026-04-28 22:37 | 21.99439 | 39.58547 | 14667 ft | 316 kts | 236° |
| 2026-04-28 22:38 | 21.98239 | 39.56582 | 14264 ft | 312 kts | 237° |
| 2026-04-28 22:38 | 21.97048 | 39.54644 | 13875 ft | 308 kts | 236° |
| 2026-04-28 22:38 | 21.95866 | 39.52731 | 13470 ft | 305 kts | 236° |
| 2026-04-28 22:38 | 21.94700 | 39.50842 | 13052 ft | 301 kts | 236° |
| 2026-04-28 22:39 | 21.93554 | 39.48959 | 12648 ft | 297 kts | 239° |
| 2026-04-28 22:39 | 21.92620 | 39.47025 | 12253 ft | 294 kts | 244° |
| 2026-04-28 22:39 | 21.91792 | 39.45023 | 11882 ft | 291 kts | 245° |
| 2026-04-28 22:39 | 21.90981 | 39.43037 | 11517 ft | 288 kts | 245° |
| 2026-04-28 22:40 | 21.90160 | 39.41076 | 11146 ft | 285 kts | 245° |
| 2026-04-28 22:40 | 21.89333 | 39.39146 | 10771 ft | 282 kts | 244° |
| 2026-04-28 22:40 | 21.88502 | 39.37236 | 10417 ft | 280 kts | 244° |
| 2026-04-28 22:40 | 21.87671 | 39.35338 | 10075 ft | 279 kts | 244° |
| 2026-04-28 22:41 | 21.86845 | 39.33471 | 9964 ft | 269 kts | 244° |
| 2026-04-28 22:41 | 21.86040 | 39.31659 | 10022 ft | 271 kts | 244° |
| 2026-04-28 22:41 | 21.85213 | 39.29835 | 10049 ft | 276 kts | 243° |
| 2026-04-28 22:41 | 21.84364 | 39.27975 | 10149 ft | 272 kts | 244° |
| 2026-04-28 22:42 | 21.83645 | 39.26286 | 10830 ft | 250 kts | 246° |
| 2026-04-28 22:42 | 21.82902 | 39.24529 | 10349 ft | 257 kts | 245° |
| 2026-04-28 22:42 | 21.82149 | 39.22776 | 9874 ft | 261 kts | 244° |
| 2026-04-28 22:42 | 21.81329 | 39.20926 | 8753 ft | 285 kts | 245° |
| 2026-04-28 22:43 | 21.80455 | 39.18958 | 8005 ft | 295 kts | 243° |
| 2026-04-28 22:43 | 21.79532 | 39.17035 | 7719 ft | 285 kts | 242° |
| 2026-04-28 22:43 | 21.78546 | 39.15220 | 7530 ft | 273 kts | 237° |
| 2026-04-28 22:43 | 21.77856 | 39.14093 | 7179 ft | 274 kts | 238° |